Time;durP1;ratioP1;P1;durP2;ratioP2;P2;SDS_P1;SDS_P2;PMS_P1;PMS_P2;Temp;Humidity;BMP_temperature;BMP_pressure;BME280_temperature;BME280_humidity;BME280_pressure;Samples;Min_cycle;Max_cycle;Signal;HPM_P1;HPM_P2
2021/12/07 00:01:19;;;;;;;7.55;5.90;;;;;;;;;;5054609;28;20433;-76
2021/12/07 00:03:46;;;;;;;6.50;5.70;;;;;;;;;;5052829;28;20779;-76
2021/12/07 00:06:13;;;;;;;6.93;6.32;;;;;;;;;;5053854;28;20514;-77
2021/12/07 00:08:41;;;;;;;6.17;5.67;;;;;;;;;;5070500;28;20211;-76
2021/12/07 00:11:09;;;;;;;5.55;5.15;;;;;;;;;;5071080;28;20509;-76
2021/12/07 00:13:38;;;;;;;5.30;4.90;;;;;;;;;;5071140;28;20204;-76
2021/12/07 00:16:06;;;;;;;6.03;5.53;;;;;;;;;;5070262;28;20426;-77
2021/12/07 00:18:34;;;;;;;6.37;5.73;;;;;;;;;;5073245;28;20467;-78
2021/12/07 00:21:01;;;;;;;6.23;5.73;;;;;;;;;;5068419;28;20448;-78
2021/12/07 00:23:28;;;;;;;6.33;5.73;;;;;;;;;;5053992;28;20447;-78
2021/12/07 00:25:56;;;;;;;6.00;5.47;;;;;;;;;;5053108;28;20472;-78
2021/12/07 00:28:23;;;;;;;5.70;5.20;;;;;;;;;;5054233;28;20479;-76
2021/12/07 00:30:51;;;;;;;5.87;5.37;;;;;;;;;;5056622;28;20450;-76
2021/12/07 00:33:32;;;;;;;5.97;5.40;;;;;;;;;;5056542;28;20454;-76
2021/12/07 00:36:01;;;;;;;6.00;5.40;;;;;;;;;;5056670;28;20499;-76
2021/12/07 00:38:29;;;;;;;6.00;5.50;;;;;;;;;;5057342;28;20438;-76
2021/12/07 00:40:58;;;;;;;6.30;5.40;;;;;;;;;;5056744;28;20471;-77
2021/12/07 00:43:28;;;;;;;5.97;5.40;;;;;;;;;;5055581;28;20857;-76
2021/12/07 00:45:57;;;;;;;5.33;4.93;;;;;;;;;;5058431;28;20457;-75
2021/12/07 00:48:24;;;;;;;6.13;5.33;;;;;;;;;;5056818;28;20481;-76
2021/12/07 00:50:51;;;;;;;6.70;6.10;;;;;;;;;;5055649;28;20960;-75
2021/12/07 00:53:20;;;;;;;4.72;4.32;;;;;;;;;;5056780;28;20451;-77
2021/12/07 00:55:48;;;;;;;5.00;4.60;;;;;;;;;;5056087;28;20223;-77
2021/12/07 00:58:19;;;;;;;5.60;5.20;;;;;;;;;;5056022;28;20462;-78
2021/12/07 01:00:47;;;;;;;6.07;5.57;;;;;;;;;;5061592;28;20185;-77
2021/12/07 01:03:14;;;;;;;7.23;5.33;;;;;;;;;;5077690;28;20442;-77
2021/12/07 01:05:47;;;;;;;6.73;6.13;;;;;;;;;;5077936;28;20465;-76
2021/12/07 01:08:38;;;;;;;6.50;5.80;;;;;;;;;;5077871;28;20469;-77
2021/12/07 01:24:50;;;;;;;6.37;5.70;;;;;;;;;;5055778;28;20592;-78
2021/12/07 01:27:20;;;;;;;5.50;5.00;;;;;;;;;;5056765;28;20452;-76
2021/12/07 01:29:53;;;;;;;6.00;5.40;;;;;;;;;;5056182;28;20485;-77
2021/12/07 01:32:35;;;;;;;6.33;5.83;;;;;;;;;;5055421;28;20459;-76
2021/12/07 01:38:07;;;;;;;6.63;6.03;;;;;;;;;;5029199;28;20527;-78
2021/12/07 01:40:46;;;;;;;6.00;5.40;;;;;;;;;;5055062;28;20438;-76
2021/12/07 01:46:31;;;;;;;5.60;5.10;;;;;;;;;;5054647;28;20475;-77
2021/12/07 01:51:50;;;;;;;4.70;4.30;;;;;;;;;;5054691;28;20475;-77
2021/12/07 01:59:50;;;;;;;4.45;4.15;;;;;;;;;;5054702;28;20429;-76
2021/12/07 02:02:18;;;;;;;4.67;4.30;;;;;;;;;;5052894;28;20580;-78
2021/12/07 02:04:45;;;;;;;4.40;4.00;;;;;;;;;;5054284;28;20471;-77
2021/12/07 02:07:13;;;;;;;4.70;4.30;;;;;;;;;;5054498;28;20446;-76
2021/12/07 02:09:42;;;;;;;4.53;4.20;;;;;;;;;;5054367;28;20477;-78
2021/12/07 02:12:12;;;;;;;4.73;4.33;;;;;;;;;;5055231;28;20460;-78
2021/12/07 02:14:39;;;;;;;4.50;4.18;;;;;;;;;;5054623;28;20517;-77
2021/12/07 02:17:08;;;;;;;5.63;4.87;;;;;;;;;;5054231;28;20202;-78
2021/12/07 02:19:36;;;;;;;4.63;4.10;;;;;;;;;;5054876;28;20437;-76
2021/12/07 02:22:04;;;;;;;5.00;4.10;;;;;;;;;;5057357;28;20446;-77
2021/12/07 02:24:32;;;;;;;5.50;5.00;;;;;;;;;;5054240;28;21019;-76
2021/12/07 02:26:59;;;;;;;4.43;4.03;;;;;;;;;;5055712;28;20469;-78
2021/12/07 02:29:27;;;;;;;5.87;4.97;;;;;;;;;;5055690;28;20477;-77
2021/12/07 02:31:55;;;;;;;4.50;4.10;;;;;;;;;;5054646;28;20453;-78
2021/12/07 02:34:24;;;;;;;4.67;4.33;;;;;;;;;;5054161;28;20465;-76
2021/12/07 02:36:51;;;;;;;5.63;5.07;;;;;;;;;;5054556;28;20491;-76
2021/12/07 02:39:20;;;;;;;5.63;4.33;;;;;;;;;;5054111;28;20447;-77
2021/12/07 02:41:47;;;;;;;4.30;4.00;;;;;;;;;;5054152;28;20453;-77
2021/12/07 02:44:14;;;;;;;5.67;5.07;;;;;;;;;;5053405;28;20577;-76
2021/12/07 02:46:41;;;;;;;5.78;4.20;;;;;;;;;;5054103;28;20453;-77
2021/12/07 02:49:09;;;;;;;4.35;4.05;;;;;;;;;;5054047;28;20275;-77
2021/12/07 02:51:36;;;;;;;4.27;3.97;;;;;;;;;;5053478;28;20199;-76
2021/12/07 02:54:04;;;;;;;4.32;3.92;;;;;;;;;;5053571;28;20472;-77
2021/12/07 02:56:32;;;;;;;4.73;4.37;;;;;;;;;;5053907;28;20451;-77
2021/12/07 02:59:02;;;;;;;4.00;3.60;;;;;;;;;;5043165;28;20441;-76
2021/12/07 03:01:33;;;;;;;3.80;3.50;;;;;;;;;;5044947;28;20442;-77
2021/12/07 03:04:05;;;;;;;2.80;2.60;;;;;;;;;;5033867;28;20476;-77
2021/12/07 03:06:46;;;;;;;3.67;3.37;;;;;;;;;;5052714;28;20205;-78
2021/12/07 03:09:48;;;;;;;3.50;3.30;;;;;;;;;;5053517;28;20899;-78
2021/12/07 03:26:08;;;;;;;3.73;3.43;;;;;;;;;;5033232;28;20194;-76
2021/12/07 03:28:38;;;;;;;2.92;2.72;;;;;;;;;;5032894;28;20439;-77
2021/12/07 03:31:06;;;;;;;3.20;3.00;;;;;;;;;;5032464;28;20565;-78
2021/12/07 03:33:34;;;;;;;3.83;3.53;;;;;;;;;;5032376;28;20445;-76
2021/12/07 03:36:01;;;;;;;3.40;3.10;;;;;;;;;;5034260;28;20941;-76
2021/12/07 03:38:28;;;;;;;3.07;2.87;;;;;;;;;;5033310;28;20195;-76
2021/12/07 03:40:55;;;;;;;3.20;2.90;;;;;;;;;;5032955;28;20450;-76
2021/12/07 03:43:22;;;;;;;3.80;3.50;;;;;;;;;;5032427;28;20498;-76
2021/12/07 03:45:51;;;;;;;3.37;3.17;;;;;;;;;;5032927;28;20471;-76
2021/12/07 03:48:18;;;;;;;3.42;3.13;;;;;;;;;;5033356;28;20448;-77
2021/12/07 03:50:45;;;;;;;3.40;3.10;;;;;;;;;;5033343;28;20217;-77
2021/12/07 03:53:14;;;;;;;3.70;3.40;;;;;;;;;;5032908;28;20449;-78
2021/12/07 03:55:41;;;;;;;3.37;3.07;;;;;;;;;;5032588;28;20472;-76
2021/12/07 03:58:09;;;;;;;3.00;2.63;;;;;;;;;;5033382;28;20450;-77
2021/12/07 04:00:39;;;;;;;3.10;2.90;;;;;;;;;;5032737;28;20202;-77
2021/12/07 04:03:10;;;;;;;2.80;2.60;;;;;;;;;;5031667;28;20462;-77
2021/12/07 04:05:44;;;;;;;3.07;2.77;;;;;;;;;;5032821;28;20477;-77
2021/12/07 04:08:11;;;;;;;3.30;3.00;;;;;;;;;;5033058;28;20430;-78
2021/12/07 04:10:38;;;;;;;2.57;2.47;;;;;;;;;;5033186;28;20490;-78
2021/12/07 04:13:06;;;;;;;2.70;2.60;;;;;;;;;;5032823;28;20446;-78
2021/12/07 04:15:33;;;;;;;2.63;2.43;;;;;;;;;;5032649;28;20525;-78
2021/12/07 04:18:00;;;;;;;2.90;2.70;;;;;;;;;;5032202;28;20453;-77
2021/12/07 04:20:32;;;;;;;2.87;2.50;;;;;;;;;;5033056;28;20781;-77
2021/12/07 04:23:02;;;;;;;2.80;2.60;;;;;;;;;;5031888;28;20453;-79
2021/12/07 04:25:29;;;;;;;2.70;2.53;;;;;;;;;;5046908;28;20517;-77
2021/12/07 04:27:56;;;;;;;2.20;2.10;;;;;;;;;;5052331;28;20439;-77
2021/12/07 04:30:25;;;;;;;3.43;2.57;;;;;;;;;;5052045;28;20477;-76
2021/12/07 04:32:52;;;;;;;2.33;2.13;;;;;;;;;;5051826;28;20445;-77
2021/12/07 04:35:20;;;;;;;3.30;2.20;;;;;;;;;;5052678;28;20226;-76
2021/12/07 04:37:49;;;;;;;2.73;2.53;;;;;;;;;;5053647;28;20226;-77
2021/12/07 04:40:17;;;;;;;2.43;2.20;;;;;;;;;;5053478;28;20440;-78
2021/12/07 04:42:44;;;;;;;2.40;2.30;;;;;;;;;;5052704;28;20854;-77
2021/12/07 04:45:21;;;;;;;2.35;2.15;;;;;;;;;;5052584;28;20276;-77
2021/12/07 04:47:59;;;;;;;3.40;2.47;;;;;;;;;;5052170;28;20447;-77
2021/12/07 04:58:41;;;;;;;3.83;2.60;;;;;;;;;;5051703;28;20319;-76
2021/12/07 05:01:11;;;;;;;2.87;2.67;;;;;;;;;;5051757;28;20937;-75
2021/12/07 05:03:38;;;;;;;2.50;2.40;;;;;;;;;;5051392;28;20470;-76
2021/12/07 05:06:08;;;;;;;2.90;2.60;;;;;;;;;;5051835;28;20551;-77
2021/12/07 05:08:41;;;;;;;4.00;2.20;;;;;;;;;;5051899;28;20444;-78
2021/12/07 05:11:31;;;;;;;2.87;2.67;;;;;;;;;;5051583;28;20462;-77
2021/12/07 05:14:13;;;;;;;2.63;2.30;;;;;;;;;;5052280;28;20535;-76
2021/12/07 05:16:53;;;;;;;3.10;2.47;;;;;;;;;;5056041;28;20435;-77
2021/12/07 05:25:14;;;;;;;6.83;2.67;;;;;;;;;;5055212;28;20431;-76
2021/12/07 05:38:40;;;;;;;4.13;3.53;;;;;;;;;;5051150;28;20462;-77
2021/12/07 05:41:09;;;;;;;3.00;2.70;;;;;;;;;;5035561;28;20447;-78
2021/12/07 05:43:36;;;;;;;2.70;2.50;;;;;;;;;;5055537;28;20447;-76
2021/12/07 05:46:04;;;;;;;5.53;2.83;;;;;;;;;;5055261;28;20459;-76
2021/12/07 05:48:31;;;;;;;3.73;2.67;;;;;;;;;;5054770;28;20451;-78
2021/12/07 05:50:58;;;;;;;2.43;2.20;;;;;;;;;;5054995;28;20479;-76
2021/12/07 05:53:25;;;;;;;14.57;8.70;;;;;;;;;;5056798;28;20441;-77
2021/12/07 05:55:52;;;;;;;8.68;3.03;;;;;;;;;;5054438;28;20518;-77
2021/12/07 05:58:21;;;;;;;3.30;3.03;;;;;;;;;;5055437;28;20202;-78
2021/12/07 06:00:48;;;;;;;2.33;2.17;;;;;;;;;;5055674;28;20458;-76
2021/12/07 06:03:16;;;;;;;2.87;2.63;;;;;;;;;;5052783;28;20448;-77
2021/12/07 06:05:44;;;;;;;6.83;3.03;;;;;;;;;;5045834;28;20478;-78
2021/12/07 06:08:11;;;;;;;3.47;2.33;;;;;;;;;;5048451;28;20467;-77
2021/12/07 06:10:38;;;;;;;3.08;2.78;;;;;;;;;;5052019;28;21254;-77
2021/12/07 06:13:05;;;;;;;3.00;2.67;;;;;;;;;;5053981;28;20199;-78
2021/12/07 06:15:36;;;;;;;4.43;2.90;;;;;;;;;;5057618;28;20484;-77
2021/12/07 06:18:04;;;;;;;5.93;2.70;;;;;;;;;;5048973;28;20870;-77
2021/12/07 06:20:31;;;;;;;8.13;3.13;;;;;;;;;;5048725;28;20442;-77
2021/12/07 06:22:58;;;;;;;4.03;2.40;;;;;;;;;;5039818;28;20559;-77
2021/12/07 06:25:25;;;;;;;7.60;3.23;;;;;;;;;;5036823;28;20270;-77
2021/12/07 06:27:52;;;;;;;3.20;2.80;;;;;;;;;;5035456;28;20484;-77
2021/12/07 06:30:19;;;;;;;3.47;2.57;;;;;;;;;;5034560;28;20532;-79
2021/12/07 06:32:48;;;;;;;3.97;2.60;;;;;;;;;;5034657;28;20450;-78
2021/12/07 06:35:15;;;;;;;1.83;1.73;;;;;;;;;;5046382;28;20483;-78
2021/12/07 06:37:42;;;;;;;8.67;2.57;;;;;;;;;;5048695;28;20470;-78
2021/12/07 06:40:11;;;;;;;3.07;2.53;;;;;;;;;;5050469;28;20469;-78
2021/12/07 06:42:39;;;;;;;2.50;2.30;;;;;;;;;;5049862;28;20482;-79
2021/12/07 06:45:06;;;;;;;5.67;2.03;;;;;;;;;;5046501;28;20475;-78
2021/12/07 06:47:33;;;;;;;6.37;2.20;;;;;;;;;;5047729;28;20473;-78
2021/12/07 06:50:02;;;;;;;3.63;2.50;;;;;;;;;;5048930;28;20475;-77
2021/12/07 06:52:29;;;;;;;6.17;2.20;;;;;;;;;;5049238;28;20449;-78
2021/12/07 06:54:57;;;;;;;3.60;2.13;;;;;;;;;;5040394;28;20717;-79
2021/12/07 06:57:24;;;;;;;6.17;2.20;;;;;;;;;;5035193;28;20449;-78
2021/12/07 06:59:51;;;;;;;3.83;2.50;;;;;;;;;;5035501;28;20439;-78
2021/12/07 07:02:19;;;;;;;2.27;2.07;;;;;;;;;;5045395;28;20443;-79
2021/12/07 07:04:46;;;;;;;4.27;2.70;;;;;;;;;;5053784;28;20470;-79
2021/12/07 07:07:16;;;;;;;3.33;2.50;;;;;;;;;;5054662;28;20453;-79
2021/12/07 07:09:43;;;;;;;5.17;2.33;;;;;;;;;;5054759;28;20460;-77
2021/12/07 07:12:10;;;;;;;4.73;2.47;;;;;;;;;;5053524;28;20812;-78
2021/12/07 07:14:37;;;;;;;3.23;2.40;;;;;;;;;;5052679;28;20463;-78
2021/12/07 07:17:04;;;;;;;2.57;2.37;;;;;;;;;;5053256;28;20923;-79
2021/12/07 07:19:32;;;;;;;3.97;2.70;;;;;;;;;;5053456;28;20446;-78
2021/12/07 07:22:01;;;;;;;3.70;2.40;;;;;;;;;;5056497;28;20209;-78
2021/12/07 07:24:29;;;;;;;6.73;2.70;;;;;;;;;;5055608;28;21007;-79
2021/12/07 07:26:56;;;;;;;2.47;2.30;;;;;;;;;;5052794;28;20452;-77
2021/12/07 07:29:24;;;;;;;3.87;2.53;;;;;;;;;;5053173;28;20445;-78
2021/12/07 07:31:51;;;;;;;4.53;2.43;;;;;;;;;;5053723;28;20651;-79
2021/12/07 07:34:18;;;;;;;7.53;3.97;;;;;;;;;;5052518;28;20528;-78
2021/12/07 07:36:45;;;;;;;3.30;2.60;;;;;;;;;;5053338;28;20960;-79
2021/12/07 07:39:12;;;;;;;4.43;2.30;;;;;;;;;;5054656;28;20290;-79
2021/12/07 07:41:41;;;;;;;3.40;2.67;;;;;;;;;;5053343;28;20514;-79
2021/12/07 07:44:08;;;;;;;2.87;2.50;;;;;;;;;;5052937;28;20234;-79
2021/12/07 07:46:35;;;;;;;4.17;2.90;;;;;;;;;;5053305;28;20456;-78
2021/12/07 07:49:03;;;;;;;2.57;2.13;;;;;;;;;;5053502;28;20448;-79
2021/12/07 07:51:30;;;;;;;3.70;2.28;;;;;;;;;;5055334;28;20476;-78
2021/12/07 07:53:59;;;;;;;4.80;3.17;;;;;;;;;;5052490;28;20276;-78
2021/12/07 07:56:26;;;;;;;3.77;2.33;;;;;;;;;;5053686;28;20448;-78
2021/12/07 07:58:55;;;;;;;7.53;2.78;;;;;;;;;;5057051;28;20982;-78
2021/12/07 08:01:23;;;;;;;3.73;3.10;;;;;;;;;;5054098;28;20273;-78
2021/12/07 08:03:50;;;;;;;4.90;2.60;;;;;;;;;;5053246;28;20477;-79
2021/12/07 08:06:17;;;;;;;4.90;2.80;;;;;;;;;;5052715;28;20445;-77
2021/12/07 08:08:44;;;;;;;3.43;2.50;;;;;;;;;;5052683;28;20445;-79
2021/12/07 08:11:13;;;;;;;3.80;2.20;;;;;;;;;;5054077;28;20465;-79
2021/12/07 08:13:40;;;;;;;2.67;2.47;;;;;;;;;;5053169;28;20267;-80
2021/12/07 08:16:15;;;;;;;5.60;2.70;;;;;;;;;;5053815;28;20446;-78
2021/12/07 08:18:42;;;;;;;5.87;3.00;;;;;;;;;;5050779;28;20289;-77
2021/12/07 08:21:10;;;;;;;9.70;2.93;;;;;;;;;;5051844;28;20942;-78
2021/12/07 08:23:37;;;;;;;3.83;2.40;;;;;;;;;;5052642;28;20440;-79
2021/12/07 08:26:05;;;;;;;2.00;1.90;;;;;;;;;;5052461;28;20936;-78
2021/12/07 08:28:32;;;;;;;7.47;2.90;;;;;;;;;;5053027;28;20574;-77
2021/12/07 08:30:59;;;;;;;7.38;3.00;;;;;;;;;;5053583;28;20481;-77
2021/12/07 08:33:28;;;;;;;6.10;2.80;;;;;;;;;;5052502;28;20217;-78
2021/12/07 08:35:55;;;;;;;4.40;2.50;;;;;;;;;;5053329;28;20800;-79
2021/12/07 08:38:22;;;;;;;2.30;2.10;;;;;;;;;;5053017;28;20443;-78
2021/12/07 08:40:53;;;;;;;5.70;2.43;;;;;;;;;;5052765;28;20446;-79
2021/12/07 08:43:21;;;;;;;3.87;2.40;;;;;;;;;;5052194;28;20453;-78
2021/12/07 08:45:48;;;;;;;4.23;2.47;;;;;;;;;;5052718;28;20550;-79
2021/12/07 08:48:15;;;;;;;4.38;2.47;;;;;;;;;;5052993;28;20439;-78
2021/12/07 08:50:44;;;;;;;5.03;2.42;;;;;;;;;;5057172;28;20214;-78
2021/12/07 08:53:13;;;;;;;11.43;2.60;;;;;;;;;;5056651;28;20199;-78
2021/12/07 09:01:10;;;;;;;5.50;1.90;;;;;;;;;;5053317;28;20205;-79
2021/12/07 09:03:37;;;;;;;3.42;1.90;;;;;;;;;;5056561;28;20442;-77
2021/12/07 09:06:06;;;;;;;5.90;2.27;;;;;;;;;;5055668;28;20211;-79
2021/12/07 09:08:33;;;;;;;5.70;2.23;;;;;;;;;;5054865;28;20820;-78
2021/12/07 09:11:00;;;;;;;3.80;2.10;;;;;;;;;;5055314;28;20854;-77
2021/12/07 09:13:28;;;;;;;3.60;2.20;;;;;;;;;;5055180;28;20920;-77
2021/12/07 09:15:56;;;;;;;5.47;2.00;;;;;;;;;;5055460;28;20533;-77
2021/12/07 09:18:23;;;;;;;7.13;2.87;;;;;;;;;;5055678;28;20469;-79
2021/12/07 09:20:50;;;;;;;3.57;2.30;;;;;;;;;;5057170;28;20429;-78
2021/12/07 09:23:19;;;;;;;3.83;2.33;;;;;;;;;;5058941;28;20433;-80
2021/12/07 09:25:46;;;;;;;4.33;2.50;;;;;;;;;;5058920;28;20507;-79
2021/12/07 09:28:13;;;;;;;5.23;2.17;;;;;;;;;;5058930;28;20449;-80
2021/12/07 09:30:40;;;;;;;4.57;1.93;;;;;;;;;;5057919;28;20480;-79
2021/12/07 09:33:08;;;;;;;3.65;2.88;;;;;;;;;;5060188;28;20858;-80
2021/12/07 09:35:35;;;;;;;4.63;2.30;;;;;;;;;;5059722;28;20283;-79
2021/12/07 09:38:03;;;;;;;3.57;2.30;;;;;;;;;;5058166;28;20433;-79
2021/12/07 09:40:31;;;;;;;4.20;2.10;;;;;;;;;;5057414;28;20452;-77
2021/12/07 09:42:59;;;;;;;2.20;1.87;;;;;;;;;;5054514;28;20909;-77
2021/12/07 09:45:30;;;;;;;3.30;2.10;;;;;;;;;;5056590;28;20496;-79
2021/12/07 09:47:59;;;;;;;3.30;1.80;;;;;;;;;;5055253;28;20513;-78
2021/12/07 09:50:26;;;;;;;5.80;1.87;;;;;;;;;;5054730;28;20472;-79
2021/12/07 09:52:54;;;;;;;3.33;1.80;;;;;;;;;;5054811;28;20963;-78
2021/12/07 09:55:21;;;;;;;5.60;2.27;;;;;;;;;;5056309;28;20470;-76
2021/12/07 09:57:49;;;;;;;7.07;2.10;;;;;;;;;;5056179;28;20456;-78
2021/12/07 10:00:18;;;;;;;2.20;1.90;;;;;;;;;;5054277;28;20449;-78
2021/12/07 10:02:45;;;;;;;2.90;2.57;;;;;;;;;;5054290;28;20738;-77
2021/12/07 10:05:13;;;;;;;5.93;2.53;;;;;;;;;;5054629;28;20476;-76
2021/12/07 10:07:40;;;;;;;4.70;1.93;;;;;;;;;;5054569;28;20448;-77
2021/12/07 10:10:10;;;;;;;3.37;1.90;;;;;;;;;;5054023;28;20449;-78
2021/12/07 10:12:37;;;;;;;3.77;2.00;;;;;;;;;;5054354;28;20801;-78
2021/12/07 10:15:07;;;;;;;2.90;1.43;;;;;;;;;;5054562;28;20894;-78
2021/12/07 10:17:37;;;;;;;2.67;2.00;;;;;;;;;;5052113;28;20463;-77
2021/12/07 10:20:19;;;;;;;7.13;2.27;;;;;;;;;;5041012;28;20430;-78
2021/12/07 10:22:47;;;;;;;3.67;2.10;;;;;;;;;;5034234;28;20438;-78
2021/12/07 10:25:25;;;;;;;3.10;1.93;;;;;;;;;;5041788;28;20825;-78
2021/12/07 10:27:52;;;;;;;3.40;1.60;;;;;;;;;;5037309;28;20448;-77
2021/12/07 10:30:22;;;;;;;3.33;1.70;;;;;;;;;;5039073;28;20442;-79
2021/12/07 10:32:57;;;;;;;3.97;2.00;;;;;;;;;;5037253;28;20477;-77
2021/12/07 10:35:28;;;;;;;4.82;2.15;;;;;;;;;;5039222;28;21019;-77
2021/12/07 10:38:09;;;;;;;7.00;2.40;;;;;;;;;;5037424;28;20451;-77
2021/12/07 10:40:36;;;;;;;4.50;2.30;;;;;;;;;;5041223;28;20473;-80
2021/12/07 10:43:03;;;;;;;2.47;2.10;;;;;;;;;;5037022;28;20196;-78
2021/12/07 10:45:32;;;;;;;6.13;2.23;;;;;;;;;;5037238;28;20909;-78
2021/12/07 10:47:59;;;;;;;6.53;2.17;;;;;;;;;;5036287;28;20967;-78
2021/12/07 10:50:26;;;;;;;5.87;1.93;;;;;;;;;;5037444;28;20466;-77
2021/12/07 10:52:57;;;;;;;2.27;2.00;;;;;;;;;;5038879;28;20478;-77
2021/12/07 10:55:26;;;;;;;3.20;1.80;;;;;;;;;;5038042;28;20830;-79
2021/12/07 10:57:54;;;;;;;2.50;2.17;;;;;;;;;;5039807;28;20455;-78
2021/12/07 11:00:23;;;;;;;5.57;2.07;;;;;;;;;;5042798;28;20453;-80
2021/12/07 11:02:53;;;;;;;4.00;1.60;;;;;;;;;;5037847;28;20442;-77
2021/12/07 11:05:22;;;;;;;2.30;1.90;;;;;;;;;;5039143;28;20463;-76
2021/12/07 11:07:50;;;;;;;3.27;1.87;;;;;;;;;;5041078;28;20447;-79
2021/12/07 11:10:22;;;;;;;7.80;1.70;;;;;;;;;;5038265;28;20514;-79
2021/12/07 11:12:57;;;;;;;3.80;1.97;;;;;;;;;;5041302;28;21004;-79
2021/12/07 11:15:26;;;;;;;3.20;2.20;;;;;;;;;;5039244;28;20480;-78
2021/12/07 11:17:56;;;;;;;4.37;1.57;;;;;;;;;;5035520;28;20454;-78
2021/12/07 11:20:23;;;;;;;3.33;1.80;;;;;;;;;;5036315;28;20447;-80
2021/12/07 11:22:52;;;;;;;6.57;2.30;;;;;;;;;;5035722;28;20442;-78
2021/12/07 11:25:32;;;;;;;4.10;1.80;;;;;;;;;;5036142;28;20467;-78
2021/12/07 11:30:44;;;;;;;3.60;1.83;;;;;;;;;;5034682;28;20421;-79
2021/12/07 11:33:23;;;;;;;2.80;1.90;;;;;;;;;;5033531;28;20478;-77
2021/12/07 11:35:50;;;;;;;7.20;1.67;;;;;;;;;;5034007;28;20516;-78
2021/12/07 11:38:29;;;;;;;3.22;2.10;;;;;;;;;;5034220;28;20443;-78
2021/12/07 11:41:14;;;;;;;2.37;1.70;;;;;;;;;;5033268;28;20583;-77
2021/12/07 11:43:50;;;;;;;1.77;1.67;;;;;;;;;;5033567;28;20470;-78
2021/12/07 11:46:19;;;;;;;2.07;1.97;;;;;;;;;;5032576;28;20913;-77
2021/12/07 11:48:48;;;;;;;4.30;1.83;;;;;;;;;;5032767;28;20458;-77
2021/12/07 11:51:15;;;;;;;3.67;2.00;;;;;;;;;;5033059;28;20446;-78
2021/12/07 11:53:43;;;;;;;3.43;1.77;;;;;;;;;;5033032;28;20451;-80
2021/12/07 11:56:10;;;;;;;2.30;1.80;;;;;;;;;;5032840;28;20989;-77
2021/12/07 11:58:38;;;;;;;3.33;1.87;;;;;;;;;;5032555;28;20908;-78
2021/12/07 12:01:06;;;;;;;2.73;2.23;;;;;;;;;;5033460;28;20446;-79
2021/12/07 12:03:33;;;;;;;5.80;2.43;;;;;;;;;;5053333;28;21013;-78
2021/12/07 12:06:01;;;;;;;2.20;1.48;;;;;;;;;;5055592;28;20434;-77
2021/12/07 12:08:29;;;;;;;3.80;1.60;;;;;;;;;;5053613;28;20206;-77
2021/12/07 12:10:57;;;;;;;2.67;1.58;;;;;;;;;;5054270;28;20838;-80
2021/12/07 12:13:29;;;;;;;1.80;1.70;;;;;;;;;;5052523;28;20718;-78
2021/12/07 12:16:03;;;;;;;6.40;2.00;;;;;;;;;;5053713;28;20418;-78
2021/12/07 12:18:36;;;;;;;3.20;2.23;;;;;;;;;;5054993;28;20477;-79
2021/12/07 12:21:12;;;;;;;4.23;2.00;;;;;;;;;;5053897;28;20445;-78
2021/12/07 12:23:43;;;;;;;2.42;1.73;;;;;;;;;;5053449;28;20936;-79
2021/12/07 12:26:11;;;;;;;3.60;2.40;;;;;;;;;;5053920;28;20638;-76
2021/12/07 12:28:40;;;;;;;5.47;2.27;;;;;;;;;;5058504;28;20442;-76
2021/12/07 12:31:08;;;;;;;5.20;2.17;;;;;;;;;;5057954;28;20862;-78
2021/12/07 12:33:47;;;;;;;4.70;2.50;;;;;;;;;;5056952;28;20477;-79
2021/12/07 12:36:15;;;;;;;4.93;2.20;;;;;;;;;;5057847;28;20884;-79
2021/12/07 12:38:46;;;;;;;3.45;1.85;;;;;;;;;;5058302;28;20430;-77
2021/12/07 12:41:14;;;;;;;5.50;2.00;;;;;;;;;;5057591;28;20237;-78
2021/12/07 12:43:42;;;;;;;6.47;2.50;;;;;;;;;;5054805;28;20519;-79
2021/12/07 12:46:10;;;;;;;1.60;1.50;;;;;;;;;;5053077;28;20944;-78
2021/12/07 12:48:38;;;;;;;5.67;2.37;;;;;;;;;;5053538;28;20446;-78
2021/12/07 12:51:05;;;;;;;4.70;2.10;;;;;;;;;;5054778;28;20434;-79
2021/12/07 12:53:34;;;;;;;3.80;2.00;;;;;;;;;;5054256;28;20594;-80
2021/12/07 12:56:03;;;;;;;2.83;2.10;;;;;;;;;;5055766;28;20488;-78
2021/12/07 12:58:38;;;;;;;3.77;1.93;;;;;;;;;;5055182;28;20438;-78
2021/12/07 13:01:11;;;;;;;3.50;2.00;;;;;;;;;;5056426;28;20429;-78
2021/12/07 13:03:42;;;;;;;5.83;1.97;;;;;;;;;;5055430;28;20437;-78
2021/12/07 13:06:11;;;;;;;5.27;1.60;;;;;;;;;;5073062;28;20439;-77
2021/12/07 13:08:53;;;;;;;3.67;2.40;;;;;;;;;;5075051;28;20433;-75
2021/12/07 13:11:31;;;;;;;5.70;2.80;;;;;;;;;;5074863;28;20450;-78
2021/12/07 13:13:59;;;;;;;4.47;1.50;;;;;;;;;;5074341;28;20445;-77
2021/12/07 13:16:26;;;;;;;15.03;2.17;;;;;;;;;;5074927;28;20418;-77
2021/12/07 13:19:00;;;;;;;4.53;1.70;;;;;;;;;;5074517;28;20437;-77
2021/12/07 13:21:28;;;;;;;3.00;1.60;;;;;;;;;;5059978;28;20437;-77
2021/12/07 13:24:00;;;;;;;2.55;1.50;;;;;;;;;;5057696;28;20503;-80
2021/12/07 13:26:27;;;;;;;5.37;2.00;;;;;;;;;;5055044;28;20203;-77
2021/12/07 13:29:05;;;;;;;1.47;1.27;;;;;;;;;;5054831;28;20445;-80
2021/12/07 13:31:37;;;;;;;2.07;1.70;;;;;;;;;;5054453;28;20459;-78
2021/12/07 13:34:04;;;;;;;2.30;1.80;;;;;;;;;;5053764;28;20822;-80
2021/12/07 13:36:33;;;;;;;3.10;2.10;;;;;;;;;;5058789;28;20472;-78
2021/12/07 13:39:07;;;;;;;4.87;1.60;;;;;;;;;;5057910;28;20195;-78
2021/12/07 13:41:34;;;;;;;7.87;2.20;;;;;;;;;;5057924;28;20978;-79
2021/12/07 13:44:01;;;;;;;1.97;1.80;;;;;;;;;;5056381;28;20458;-77
2021/12/07 13:46:29;;;;;;;3.83;1.53;;;;;;;;;;5056864;28;20532;-78
2021/12/07 13:49:11;;;;;;;3.63;1.53;;;;;;;;;;5055453;28;20441;-78
2021/12/07 13:51:38;;;;;;;3.67;2.40;;;;;;;;;;5056263;28;20457;-79
2021/12/07 13:54:07;;;;;;;3.47;2.23;;;;;;;;;;5055969;28;20450;-79
2021/12/07 13:56:35;;;;;;;3.30;1.87;;;;;;;;;;5056432;28;20442;-78
2021/12/07 13:59:03;;;;;;;5.30;2.30;;;;;;;;;;5055129;28;20437;-77
2021/12/07 14:01:32;;;;;;;2.63;1.63;;;;;;;;;;5055454;28;20457;-78
2021/12/07 14:03:59;;;;;;;7.63;2.10;;;;;;;;;;5056136;28;20450;-78
2021/12/07 14:06:27;;;;;;;3.57;1.83;;;;;;;;;;5056450;28;20449;-78
2021/12/07 14:08:54;;;;;;;3.80;2.50;;;;;;;;;;5056826;28;20441;-77
2021/12/07 14:11:23;;;;;;;2.23;2.00;;;;;;;;;;5056802;28;20229;-78
2021/12/07 14:13:52;;;;;;;6.07;2.33;;;;;;;;;;5055228;28;20493;-77
2021/12/07 14:16:24;;;;;;;4.23;2.67;;;;;;;;;;5055783;28;20456;-79
2021/12/07 14:18:51;;;;;;;5.50;2.40;;;;;;;;;;5056411;28;20571;-78
2021/12/07 14:21:18;;;;;;;10.33;2.30;;;;;;;;;;5056681;28;20511;-78
2021/12/07 14:23:47;;;;;;;8.93;4.17;;;;;;;;;;5056407;28;20445;-78
2021/12/07 14:26:16;;;;;;;3.87;2.50;;;;;;;;;;5055325;28;20499;-78
2021/12/07 14:28:45;;;;;;;4.97;2.57;;;;;;;;;;5054945;28;20449;-77
2021/12/07 14:31:14;;;;;;;2.43;1.73;;;;;;;;;;5054824;28;20454;-76
2021/12/07 14:33:43;;;;;;;2.10;1.87;;;;;;;;;;5055089;28;20486;-78
2021/12/07 14:36:11;;;;;;;3.10;2.23;;;;;;;;;;5054688;28;20553;-78
2021/12/07 14:38:38;;;;;;;4.23;2.17;;;;;;;;;;5055531;28;20503;-78
2021/12/07 14:41:07;;;;;;;5.07;2.30;;;;;;;;;;5054623;28;20635;-78
2021/12/07 14:43:34;;;;;;;2.80;2.30;;;;;;;;;;5055790;28;20480;-78
2021/12/07 14:46:04;;;;;;;2.67;2.33;;;;;;;;;;5054890;28;20457;-77
2021/12/07 14:48:31;;;;;;;2.67;1.97;;;;;;;;;;5058406;28;20460;-80
2021/12/07 14:51:02;;;;;;;2.13;1.80;;;;;;;;;;5056170;28;20442;-79
2021/12/07 14:53:33;;;;;;;2.30;1.73;;;;;;;;;;5057212;28;21096;-78
2021/12/07 14:56:00;;;;;;;3.90;2.00;;;;;;;;;;5056015;28;20222;-77
2021/12/07 14:58:30;;;;;;;13.40;2.50;;;;;;;;;;5055656;28;20541;-81
2021/12/07 15:00:57;;;;;;;2.00;1.80;;;;;;;;;;5057059;28;20468;-80
2021/12/07 15:03:33;;;;;;;4.30;2.57;;;;;;;;;;5057002;28;20449;-78
2021/12/07 15:06:00;;;;;;;1.90;1.80;;;;;;;;;;5056004;28;20468;-77
2021/12/07 15:08:27;;;;;;;4.57;1.65;;;;;;;;;;5056367;28;20429;-80
2021/12/07 15:10:54;;;;;;;3.10;1.90;;;;;;;;;;5058546;28;20203;-79
2021/12/07 15:13:23;;;;;;;3.23;2.17;;;;;;;;;;5055051;28;20488;-80
2021/12/07 15:15:50;;;;;;;3.53;2.00;;;;;;;;;;5056845;28;21023;-78
2021/12/07 15:18:17;;;;;;;2.60;2.40;;;;;;;;;;5054775;28;20454;-80
2021/12/07 15:20:49;;;;;;;3.10;1.80;;;;;;;;;;5057024;28;20457;-78
2021/12/07 15:23:19;;;;;;;8.93;2.20;;;;;;;;;;5055821;28;20512;-80
2021/12/07 15:25:49;;;;;;;3.80;1.90;;;;;;;;;;5057439;28;20897;-78
2021/12/07 15:28:16;;;;;;;3.83;2.03;;;;;;;;;;5056214;28;20218;-79
2021/12/07 15:30:43;;;;;;;3.50;2.43;;;;;;;;;;5055564;28;20937;-77
2021/12/07 15:33:10;;;;;;;4.40;2.20;;;;;;;;;;5053937;28;21010;-79
2021/12/07 15:35:38;;;;;;;6.03;2.30;;;;;;;;;;5061296;28;20480;-76
2021/12/07 15:38:06;;;;;;;8.17;2.47;;;;;;;;;;5074944;28;20430;-78
2021/12/07 15:40:33;;;;;;;7.87;2.20;;;;;;;;;;5072587;28;20446;-77
2021/12/07 15:43:00;;;;;;;1.90;1.80;;;;;;;;;;5075391;28;20453;-75
2021/12/07 15:45:27;;;;;;;5.77;1.80;;;;;;;;;;5075377;28;20506;-78
2021/12/07 15:47:54;;;;;;;5.60;2.80;;;;;;;;;;5074131;28;20421;-78
2021/12/07 15:50:22;;;;;;;3.87;2.23;;;;;;;;;;5074447;28;20434;-77
2021/12/07 15:52:50;;;;;;;3.83;2.30;;;;;;;;;;5069332;28;20535;-77
2021/12/07 15:55:19;;;;;;;5.07;2.70;;;;;;;;;;5056553;28;20511;-78
2021/12/07 15:57:48;;;;;;;5.47;2.43;;;;;;;;;;5056668;28;20446;-78
2021/12/07 16:00:16;;;;;;;6.00;2.38;;;;;;;;;;5056635;28;20821;-79
2021/12/07 16:02:50;;;;;;;4.50;2.47;;;;;;;;;;5057630;28;20669;-79
2021/12/07 16:05:17;;;;;;;3.33;2.43;;;;;;;;;;5057722;28;20511;-78
2021/12/07 16:07:45;;;;;;;3.87;2.30;;;;;;;;;;5059027;28;20453;-75
2021/12/07 16:10:14;;;;;;;2.87;2.23;;;;;;;;;;5066979;28;20875;-77